createdAt,value
2022-09-21T00:01:20.826Z,58.80
2022-09-21T00:04:22.815Z,58.90
2022-09-21T00:07:24.725Z,61.90
2022-09-21T00:10:27.349Z,56.70
2022-09-21T00:13:30.053Z,56.90
2022-09-21T00:16:32.338Z,57.80
2022-09-21T00:19:35.058Z,54.80
2022-09-21T00:22:38.274Z,56.90
2022-09-21T00:25:40.176Z,59.30
2022-09-21T00:28:42.286Z,60.60
2022-09-21T00:31:44.186Z,64.90
2022-09-21T00:34:45.943Z,58.80
2022-09-21T00:37:47.837Z,55.10
2022-09-21T00:40:49.621Z,60.00
2022-09-21T00:44:16.434Z,59.40
2022-09-21T00:47:32.389Z,60.40
2022-09-21T00:50:35.371Z,58.90
2022-09-21T00:53:38.338Z,55.20
2022-09-21T00:56:40.289Z,58.50
2022-09-21T00:59:43.931Z,53.20
2022-09-21T01:02:46.155Z,56.10
2022-09-21T01:05:48.128Z,52.40
2022-09-21T01:08:52.914Z,47.50
2022-09-21T01:12:24.875Z,51.80
2022-09-21T01:18:55.653Z,46.30
2022-09-21T01:22:11.236Z,46.80
2022-09-21T01:25:38.100Z,45.80
2022-09-21T01:29:07.239Z,43.30
2022-09-21T01:32:24.490Z,42.80
2022-09-21T01:35:44.338Z,42.90
2022-09-21T01:38:52.755Z,43.90
2022-09-21T01:41:56.395Z,44.90
2022-09-21T01:45:00.056Z,42.90
2022-09-21T01:48:02.220Z,42.00
2022-09-21T01:51:07.922Z,43.30
2022-09-21T01:54:17.050Z,42.20
2022-09-21T01:57:37.838Z,42.80
2022-09-21T02:00:40.432Z,41.10
2022-09-21T02:03:47.926Z,43.40
2022-09-21T02:06:50.534Z,43.00
2022-09-21T02:09:52.369Z,48.70
2022-09-21T02:12:58.672Z,45.80
2022-09-21T02:16:00.503Z,42.80
2022-09-21T02:19:18.082Z,43.50
2022-09-21T02:22:33.562Z,43.40
2022-09-21T02:25:50.283Z,44.40
2022-09-21T02:29:01.899Z,43.30
2022-09-21T02:35:36.393Z,45.20
2022-09-21T02:39:06.198Z,41.00
2022-09-21T02:42:17.491Z,41.90
2022-09-21T02:45:23.166Z,41.90
2022-09-21T02:48:30.798Z,46.30
2022-09-21T02:51:36.820Z,44.10
2022-09-21T02:54:40.370Z,45.70
2022-09-21T02:57:42.955Z,42.70
2022-09-21T03:00:44.842Z,39.90
2022-09-21T03:03:47.540Z,43.30
2022-09-21T03:06:49.578Z,40.70
2022-09-21T03:09:51.333Z,41.60
2022-09-21T03:12:59.435Z,39.70
2022-09-21T03:16:06.299Z,39.40
2022-09-21T03:19:08.208Z,42.20
2022-09-21T03:22:10.022Z,42.20
2022-09-21T03:25:13.267Z,44.50
2022-09-21T03:28:16.294Z,42.80
2022-09-21T03:31:18.126Z,44.00
2022-09-21T03:34:21.211Z,44.80
2022-09-21T03:37:23.033Z,42.40
2022-09-21T03:40:26.712Z,45.90
2022-09-21T03:43:28.519Z,47.80
2022-09-21T03:46:30.445Z,53.50
2022-09-21T03:49:33.018Z,51.90
2022-09-21T03:52:36.296Z,48.90
2022-09-21T03:55:38.603Z,52.00
2022-09-21T03:58:41.356Z,51.60
2022-09-21T04:01:43.639Z,52.10
2022-09-21T04:04:45.417Z,51.10
2022-09-21T04:07:47.806Z,53.40
2022-09-21T04:10:49.651Z,50.20
2022-09-21T04:13:57.156Z,52.30
2022-09-21T04:16:59.456Z,50.60
2022-09-21T04:20:01.437Z,49.40
2022-09-21T04:23:03.213Z,51.90
2022-09-21T04:26:05.198Z,49.90
2022-09-21T04:29:07.354Z,51.50
2022-09-21T04:32:11.272Z,47.80
2022-09-21T04:35:13.027Z,48.30
2022-09-21T04:38:14.890Z,46.20
2022-09-21T04:41:17.195Z,41.90
2022-09-21T04:44:19.829Z,46.90
2022-09-21T04:47:23.858Z,45.70
2022-09-21T04:50:25.782Z,39.80
2022-09-21T04:53:27.689Z,39.90
2022-09-21T04:56:30.501Z,40.70
2022-09-21T04:59:32.360Z,41.10
2022-09-21T05:02:34.279Z,40.50
2022-09-21T05:05:36.431Z,35.90
2022-09-21T05:08:57.042Z,39.50
2022-09-21T05:11:59.143Z,39.30
2022-09-21T05:15:01.327Z,38.80
2022-09-21T05:18:03.149Z,37.10
2022-09-21T05:21:06.556Z,42.40
2022-09-21T05:24:08.505Z,35.70
2022-09-21T05:27:10.358Z,35.60
2022-09-21T05:30:12.935Z,34.70
2022-09-21T05:33:17.204Z,33.80
2022-09-21T05:36:42.430Z,34.00
2022-09-21T05:39:44.890Z,36.00
2022-09-21T05:42:47.013Z,32.40
2022-09-21T05:46:05.552Z,30.30
2022-09-21T05:49:23.080Z,32.70
2022-09-21T05:52:30.573Z,36.90
2022-09-21T05:55:54.358Z,38.30
2022-09-21T05:59:11.501Z,34.10
2022-09-21T06:02:16.464Z,32.80
2022-09-21T06:05:18.774Z,36.30
2022-09-21T06:08:20.655Z,36.80
2022-09-21T06:11:22.456Z,38.10
2022-09-21T06:14:27.000Z,38.40
2022-09-21T06:17:28.815Z,36.90
2022-09-21T06:20:30.707Z,35.80
2022-09-21T06:23:32.806Z,37.80
2022-09-21T06:26:35.301Z,36.20
2022-09-21T06:29:37.259Z,34.30
2022-09-21T06:32:39.058Z,29.90
2022-09-21T06:35:41.118Z,35.10
2022-09-21T06:38:43.357Z,32.30
2022-09-21T06:41:45.304Z,28.90
2022-09-21T06:44:47.088Z,28.40
2022-09-21T06:47:49.024Z,30.40
2022-09-21T06:50:51.200Z,27.90
2022-09-21T06:53:57.187Z,28.80
2022-09-21T06:57:00.197Z,25.00
2022-09-21T07:00:02.679Z,28.10
2022-09-21T07:03:04.498Z,28.10
2022-09-21T07:06:07.402Z,25.30
2022-09-21T07:12:34.683Z,25.80
2022-09-21T07:15:36.588Z,28.10
2022-09-21T07:18:44.188Z,24.80
2022-09-21T07:21:46.371Z,24.80
2022-09-21T07:24:48.168Z,24.20
2022-09-21T07:27:50.009Z,24.10
2022-09-21T07:30:52.062Z,23.50
2022-09-21T07:33:58.313Z,23.00
2022-09-21T07:37:00.072Z,22.90
2022-09-21T07:40:06.097Z,21.30
2022-09-21T07:43:08.031Z,21.70
2022-09-21T07:46:14.866Z,22.40
2022-09-21T07:49:16.754Z,22.80
2022-09-21T07:52:19.557Z,21.30
2022-09-21T07:55:21.462Z,25.20
2022-09-21T07:58:42.042Z,23.10
2022-09-21T08:01:43.770Z,24.60
2022-09-21T08:04:45.699Z,22.30
2022-09-21T08:07:48.586Z,22.00
2022-09-21T08:10:53.170Z,23.40
2022-09-21T08:13:58.054Z,22.20
2022-09-21T08:17:00.063Z,21.80
2022-09-21T08:20:02.826Z,24.30
2022-09-21T08:23:05.143Z,21.20
2022-09-21T08:26:08.094Z,21.10
2022-09-21T08:29:10.671Z,23.60
2022-09-21T08:32:27.560Z,24.60
2022-09-21T08:35:34.798Z,21.30
2022-09-21T08:38:38.690Z,21.20
2022-09-21T08:41:46.310Z,21.90
2022-09-21T08:44:55.605Z,22.10
2022-09-21T08:47:59.512Z,21.00
2022-09-21T08:51:06.243Z,23.30
2022-09-21T08:54:35.854Z,22.00
2022-09-21T08:57:37.651Z,20.30
2022-09-21T09:00:41.029Z,21.60
2022-09-21T09:03:52.592Z,18.20
2022-09-21T09:06:54.662Z,17.50
2022-09-21T09:10:05.816Z,18.80
2022-09-21T09:13:18.363Z,21.20
2022-09-21T09:16:28.154Z,20.70
2022-09-21T09:19:52.054Z,19.20
2022-09-21T09:23:08.159Z,20.90
2022-09-21T09:26:20.690Z,19.40
2022-09-21T09:29:43.913Z,19.10
2022-09-21T09:32:59.162Z,20.90
2022-09-21T09:36:06.491Z,20.40
2022-09-21T09:39:14.456Z,17.40
2022-09-21T09:42:31.971Z,18.40
2022-09-21T09:45:52.039Z,19.40
2022-09-21T09:49:06.092Z,20.30
2022-09-21T09:52:12.076Z,18.10
2022-09-21T09:55:30.520Z,19.20
2022-09-21T09:58:55.237Z,18.20
2022-09-21T10:02:10.769Z,19.80
2022-09-21T10:05:20.649Z,21.30
2022-09-21T10:08:44.168Z,18.30
2022-09-21T10:11:46.982Z,18.20
2022-09-21T10:14:50.177Z,17.50
2022-09-21T10:18:10.782Z,19.30
2022-09-21T10:21:22.933Z,16.60
2022-09-21T10:24:33.698Z,16.60
2022-09-21T10:27:37.479Z,16.90
2022-09-21T10:30:39.277Z,16.00
2022-09-21T10:33:50.797Z,18.50
2022-09-21T10:39:57.406Z,17.50
2022-09-21T10:43:00.650Z,17.30
2022-09-21T10:46:02.702Z,19.10
2022-09-21T10:49:04.518Z,16.90
2022-09-21T10:52:06.430Z,19.20
2022-09-21T10:55:18.956Z,18.80
2022-09-21T10:58:21.019Z,18.10
2022-09-21T11:01:23.757Z,19.50
2022-09-21T11:04:37.060Z,20.00
2022-09-21T11:07:59.717Z,18.30
2022-09-21T11:11:21.686Z,20.70
2022-09-21T11:14:51.520Z,20.00
2022-09-21T11:17:59.379Z,19.40
2022-09-21T11:21:07.278Z,21.20
2022-09-21T11:24:40.370Z,19.70
2022-09-21T11:27:45.323Z,19.70
2022-09-21T11:31:11.985Z,21.40
2022-09-21T11:34:20.981Z,19.60
2022-09-21T11:37:57.556Z,20.70
2022-09-21T11:41:06.282Z,20.50
2022-09-21T11:44:41.083Z,18.80
2022-09-21T11:48:09.215Z,19.10
2022-09-21T11:51:40.470Z,19.50
2022-09-21T11:58:06.298Z,19.10
2022-09-21T12:01:28.215Z,18.10
2022-09-21T12:04:55.740Z,18.70
2022-09-21T12:08:03.518Z,18.70
2022-09-21T12:11:44.058Z,16.70
2022-09-21T12:15:08.321Z,18.30
2022-09-21T12:18:21.522Z,17.60
2022-09-21T12:21:27.933Z,18.10
2022-09-21T12:24:35.749Z,19.30
2022-09-21T12:27:41.235Z,18.80
2022-09-21T12:30:45.654Z,18.20
2022-09-21T12:34:15.534Z,18.10
2022-09-21T12:37:41.248Z,18.30
2022-09-21T12:41:15.507Z,16.40
2022-09-21T12:44:23.110Z,18.20
2022-09-21T12:47:28.947Z,17.00
2022-09-21T12:50:40.121Z,19.90
2022-09-21T12:57:23.574Z,19.40
2022-09-21T13:00:30.632Z,18.00
2022-09-21T13:04:10.910Z,18.30
2022-09-21T13:07:34.067Z,18.90
2022-09-21T13:10:49.246Z,18.00
2022-09-21T13:14:03.194Z,18.80
2022-09-21T13:17:06.134Z,18.20
2022-09-21T13:20:21.581Z,17.10
2022-09-21T13:23:41.199Z,17.40
2022-09-21T13:26:51.156Z,20.30
2022-09-21T13:30:29.639Z,19.00
2022-09-21T13:33:37.604Z,18.40
2022-09-21T13:36:39.471Z,18.10
2022-09-21T13:39:44.610Z,17.40
2022-09-21T13:42:48.031Z,13.70
2022-09-21T13:45:53.794Z,14.70
2022-09-21T13:48:55.720Z,12.10
2022-09-21T13:52:07.781Z,16.50
2022-09-21T13:55:28.677Z,14.20
2022-09-21T13:58:36.642Z,16.50
2022-09-21T14:01:47.970Z,15.50
2022-09-21T14:04:51.063Z,7.30
2022-09-21T14:08:15.990Z,8.00
2022-09-21T14:11:22.578Z,12.10
2022-09-21T14:14:27.365Z,40.00
2022-09-21T14:17:37.801Z,41.90
2022-09-21T14:20:39.916Z,12.90
2022-09-21T14:23:42.185Z,35.10
2022-09-21T14:26:43.946Z,17.80
2022-09-21T14:29:55.565Z,11.20
2022-09-21T14:33:00.127Z,11.00
2022-09-21T14:36:07.499Z,12.80
2022-09-21T14:39:43.401Z,11.70
2022-09-21T14:42:46.239Z,16.00
2022-09-21T14:46:20.223Z,19.50
2022-09-21T14:49:45.817Z,22.20
2022-09-21T14:52:57.068Z,22.90
2022-09-21T14:56:04.610Z,22.40
2022-09-21T14:59:25.329Z,17.20
2022-09-21T15:02:31.518Z,18.70
2022-09-21T15:05:33.307Z,14.50
2022-09-21T15:09:12.542Z,15.30
2022-09-21T15:12:20.823Z,11.70
2022-09-21T15:15:41.669Z,9.20
2022-09-21T15:18:46.201Z,6.20
2022-09-21T15:21:52.681Z,6.90
2022-09-21T15:25:02.693Z,9.20
2022-09-21T15:28:04.570Z,4.60
2022-09-21T15:31:07.842Z,13.50
2022-09-21T15:34:11.072Z,7.70
2022-09-21T15:37:17.409Z,4.90
2022-09-21T15:40:20.831Z,3.40
2022-09-21T15:43:22.685Z,23.50
2022-09-21T15:46:24.657Z,17.90
2022-09-21T15:49:28.301Z,7.10
2022-09-21T15:52:34.267Z,6.20
2022-09-21T15:55:36.077Z,6.20
2022-09-21T15:58:40.537Z,11.70
2022-09-21T16:01:45.002Z,12.00
2022-09-21T16:04:50.126Z,10.10
2022-09-21T16:08:10.178Z,11.50
2022-09-21T16:11:25.229Z,13.00
2022-09-21T16:14:45.662Z,17.30
2022-09-21T16:18:11.761Z,18.80
2022-09-21T16:21:27.890Z,20.00
2022-09-21T16:24:30.452Z,28.20
2022-09-21T16:27:35.624Z,17.90
2022-09-21T16:30:46.290Z,18.40
2022-09-21T16:33:48.966Z,17.50
2022-09-21T16:36:53.025Z,23.50
2022-09-21T16:39:57.045Z,18.60
2022-09-21T16:42:58.963Z,9.20
2022-09-21T16:46:02.247Z,9.70
2022-09-21T16:49:04.187Z,10.60
2022-09-21T16:52:07.597Z,14.00
2022-09-21T16:55:10.388Z,15.70
2022-09-21T16:58:12.306Z,13.30
2022-09-21T17:01:22.316Z,12.80
2022-09-21T17:04:29.653Z,17.90
2022-09-21T17:07:31.406Z,13.30
2022-09-21T17:10:37.902Z,12.30
2022-09-21T17:13:39.559Z,11.40
2022-09-21T17:16:44.015Z,9.50
2022-09-21T17:19:48.554Z,11.20
2022-09-21T17:22:50.220Z,10.20
2022-09-21T17:25:52.601Z,15.20
2022-09-21T17:28:54.180Z,16.60
2022-09-21T17:31:57.987Z,17.30
2022-09-21T17:35:15.816Z,9.60
2022-09-21T17:38:18.259Z,13.60
2022-09-21T17:41:26.087Z,12.80
2022-09-21T17:44:46.005Z,15.70
2022-09-21T17:47:50.296Z,14.40
2022-09-21T17:50:52.216Z,16.10
2022-09-21T17:53:54.138Z,17.90
2022-09-21T17:57:33.154Z,13.70
2022-09-21T18:01:07.585Z,15.50
2022-09-21T18:04:13.164Z,13.40
2022-09-21T18:07:17.690Z,16.30
2022-09-21T18:10:21.287Z,17.10
2022-09-21T18:13:59.569Z,21.30
2022-09-21T18:17:26.070Z,18.40
2022-09-21T18:20:54.125Z,22.60
2022-09-21T18:24:33.298Z,23.70
2022-09-21T18:27:35.194Z,23.60
2022-09-21T18:30:41.507Z,20.90
2022-09-21T18:33:51.035Z,21.80
2022-09-21T18:36:56.118Z,24.30
2022-09-21T18:40:03.343Z,22.70
2022-09-21T18:43:23.788Z,26.10
2022-09-21T18:46:33.948Z,25.70
2022-09-21T18:49:59.088Z,25.20
2022-09-21T18:53:29.416Z,24.80
2022-09-21T18:56:34.983Z,21.40
2022-09-21T18:59:36.842Z,21.50
2022-09-21T19:02:48.724Z,21.60
2022-09-21T19:06:15.829Z,23.00
2022-09-21T19:09:23.393Z,22.20
2022-09-21T19:12:49.829Z,20.20
2022-09-21T19:16:20.527Z,23.40
2022-09-21T19:19:37.690Z,22.80
2022-09-21T19:23:06.171Z,23.70
2022-09-21T19:26:17.575Z,24.30
2022-09-21T19:29:35.490Z,25.60
2022-09-21T19:32:53.906Z,24.10
2022-09-21T19:35:57.161Z,25.50
2022-09-21T19:38:59.085Z,25.40
2022-09-21T19:42:07.302Z,25.60
2022-09-21T19:45:22.748Z,28.00
2022-09-21T19:48:28.112Z,30.90
2022-09-21T19:51:41.907Z,30.00
2022-09-21T19:55:02.769Z,31.40
2022-09-21T19:58:23.696Z,29.30
2022-09-21T20:01:25.669Z,32.00
2022-09-21T20:04:42.389Z,34.70
2022-09-21T20:08:09.503Z,32.80
2022-09-21T20:11:34.859Z,36.80
2022-09-21T20:14:43.569Z,36.90
2022-09-21T20:17:54.606Z,35.00
2022-09-21T20:20:57.528Z,35.30
2022-09-21T20:24:02.090Z,38.70
2022-09-21T20:27:14.649Z,39.80
2022-09-21T20:30:21.189Z,36.90
2022-09-21T20:33:24.262Z,41.70
2022-09-21T20:36:28.862Z,38.30
2022-09-21T20:39:30.540Z,36.00
2022-09-21T20:42:34.445Z,37.00
2022-09-21T20:45:36.323Z,36.60
2022-09-21T20:48:38.439Z,38.70
2022-09-21T20:51:40.081Z,37.10
2022-09-21T20:54:45.508Z,38.40
2022-09-21T20:57:50.690Z,36.10
2022-09-21T21:00:57.876Z,39.30
2022-09-21T21:04:03.307Z,41.00
2022-09-21T21:07:06.101Z,40.80
2022-09-21T21:10:08.450Z,40.90
2022-09-21T21:13:10.191Z,38.90
2022-09-21T21:16:12.613Z,36.60
2022-09-21T21:19:15.006Z,41.90
2022-09-21T21:22:17.214Z,42.50
2022-09-21T21:25:19.118Z,42.00
2022-09-21T21:28:20.868Z,39.30
2022-09-21T21:31:23.649Z,42.80
2022-09-21T21:34:25.671Z,44.00
2022-09-21T21:37:27.724Z,42.60
2022-09-21T21:40:29.448Z,41.50
2022-09-21T21:43:36.038Z,40.40
2022-09-21T21:46:37.737Z,48.30
2022-09-21T21:49:39.514Z,46.90
2022-09-21T21:52:41.442Z,46.70
2022-09-21T21:55:43.171Z,52.10
2022-09-21T21:58:44.755Z,47.20
2022-09-21T22:01:46.852Z,49.20
2022-09-21T22:04:48.659Z,48.00
2022-09-21T22:07:50.419Z,52.70
2022-09-21T22:10:52.139Z,48.60
2022-09-21T22:13:55.011Z,51.10
2022-09-21T22:16:59.020Z,49.70
2022-09-21T22:20:00.750Z,45.40
2022-09-21T22:23:02.629Z,49.20
2022-09-21T22:26:09.429Z,46.10
2022-09-21T22:29:13.516Z,48.00
2022-09-21T22:32:15.260Z,46.80
2022-09-21T22:35:17.187Z,50.50
2022-09-21T22:38:19.102Z,48.30
2022-09-21T22:41:25.672Z,48.70
2022-09-21T22:44:27.385Z,52.50
2022-09-21T22:47:29.148Z,47.40
2022-09-21T22:50:30.759Z,47.00
2022-09-21T22:53:32.678Z,46.70
2022-09-21T22:56:34.418Z,47.00
2022-09-21T22:59:36.191Z,51.50
2022-09-21T23:02:37.888Z,47.50
2022-09-21T23:06:00.097Z,45.70
2022-09-21T23:09:19.787Z,43.60
2022-09-21T23:12:34.722Z,44.30
2022-09-21T23:15:36.462Z,41.90
2022-09-21T23:18:38.814Z,45.10
2022-09-21T23:21:41.806Z,46.20
2022-09-21T23:24:43.533Z,46.00
2022-09-21T23:27:45.173Z,49.60
2022-09-21T23:30:46.911Z,47.40
2022-09-21T23:33:51.032Z,48.80
2022-09-21T23:36:52.712Z,48.40
2022-09-21T23:39:54.419Z,52.80
2022-09-21T23:42:56.134Z,51.00
2022-09-21T23:45:58.576Z,50.60
2022-09-21T23:49:00.837Z,49.30
2022-09-21T23:52:02.985Z,51.80
2022-09-21T23:55:05.103Z,59.00
2022-09-21T23:58:06.843Z,51.80
